Airfield :
LOGIN :

Register | Disclaimer

   EN    FR    IT 

 










Legend :    VFR   Marginal VFR   IFR   Intensive IFR   Very Intensive IFR
Visi :
Ceiling :
>= 8 km
>= 3000ft
5 to 8 km
1000 to 3000 ft
1500m to 5 km
500 to 1000 ft
800 to 1500m
200 to 500 ft
< 800m
< 200 ft
Symbols :   Thunderstorms  Fog  Heavy snow  Heavy precipitations  Wind > 20 kt
SIGMETs :     Misc.  Thunderstorms  Icing  Turbulence  Mountain Waves  Volcanic Ashes






- Airport Elevation : 309 ft
- IATA code : FNI


LFTW - Nîmes Garons

CURRENT METAR :
  • 140830Z AUTO 36008KT 320V030 CAVOK 27/07 Q1016 NOSIG

EXPIRED METARs :
  • 140800Z AUTO 36007KT 310V030 CAVOK 27/07 Q1016 NOSIG
  • 140730Z AUTO 33006KT 290V010 CAVOK 26/06 Q1016 NOSIG
  • 140700Z AUTO 33007KT 280V360 CAVOK 26/07 Q1016 NOSIG
  • 140630Z AUTO 33007KT 290V350 CAVOK 24/07 Q1016 NOSIG
  • 140600Z AUTO 32005KT CAVOK 23/07 Q1015 NOSIG

TAF TAF LFTW
Valid from the 14 at 03:00 until the 15 at 03:00 UTC


140200Z 1403/1503 VRB03KT CAVOK
BECMG 1404/1407 34010KT
PROB40
TEMPO 1413/1419 21015KT



MET'MAP, your aeronautical weather chart ! - Copyright ORBIFLY December 2007 - Disclaimer

ORBIFLY MET'MAP TEAM :

Programming & Development : Alexandra Zaïnal
Concept & original design : Baudouin d'Aumeries
Assistance for programming : Marc-Olivier Méhu
Technical & hardware support : Manuel Goepfert

Contact : metmap@orbifly.com




SOURCES & CREDITS :

   NOAA